sensor_id;sensor_type;location;lat;lon;timestamp;P1;durP1;ratioP1;P2;durP2;ratioP2
14294;SDS011;7231;59.370;18.016;2022-09-01T00:00:08;0.65;;;0.60;;
14294;SDS011;7231;59.370;18.016;2022-09-01T00:02:40;0.65;;;0.50;;
14294;SDS011;7231;59.370;18.016;2022-09-01T00:05:10;0.70;;;0.55;;
14294;SDS011;7231;59.370;18.016;2022-09-01T00:07:38;1.23;;;0.70;;
14294;SDS011;7231;59.370;18.016;2022-09-01T00:10:07;0.57;;;0.50;;
14294;SDS011;7231;59.370;18.016;2022-09-01T00:12:36;0.60;;;0.60;;
14294;SDS011;7231;59.370;18.016;2022-09-01T00:15:09;1.20;;;0.70;;
14294;SDS011;7231;59.370;18.016;2022-09-01T00:17:38;0.60;;;0.57;;
14294;SDS011;7231;59.370;18.016;2022-09-01T00:20:07;1.00;;;0.55;;
14294;SDS011;7231;59.370;18.016;2022-09-01T00:22:37;0.93;;;0.60;;
14294;SDS011;7231;59.370;18.016;2022-09-01T00:25:05;1.48;;;0.90;;
14294;SDS011;7231;59.370;18.016;2022-09-01T00:27:34;0.73;;;0.60;;
14294;SDS011;7231;59.370;18.016;2022-09-01T00:30:04;1.23;;;0.60;;
14294;SDS011;7231;59.370;18.016;2022-09-01T00:32:33;1.10;;;0.60;;
14294;SDS011;7231;59.370;18.016;2022-09-01T00:35:01;0.88;;;0.70;;
14294;SDS011;7231;59.370;18.016;2022-09-01T00:37:29;1.58;;;0.80;;
14294;SDS011;7231;59.370;18.016;2022-09-01T00:39:57;0.82;;;0.65;;
14294;SDS011;7231;59.370;18.016;2022-09-01T00:42:25;2.53;;;0.77;;
14294;SDS011;7231;59.370;18.016;2022-09-01T00:44:53;2.13;;;0.80;;
14294;SDS011;7231;59.370;18.016;2022-09-01T00:47:23;0.93;;;0.70;;
14294;SDS011;7231;59.370;18.016;2022-09-01T00:49:51;1.83;;;0.60;;
14294;SDS011;7231;59.370;18.016;2022-09-01T00:52:20;1.30;;;0.93;;
14294;SDS011;7231;59.370;18.016;2022-09-01T00:54:57;1.25;;;0.88;;
14294;SDS011;7231;59.370;18.016;2022-09-01T00:57:29;2.60;;;1.00;;
14294;SDS011;7231;59.370;18.016;2022-09-01T00:59:58;2.38;;;0.95;;
14294;SDS011;7231;59.370;18.016;2022-09-01T01:02:29;0.95;;;0.80;;
14294;SDS011;7231;59.370;18.016;2022-09-01T01:04:58;1.08;;;0.65;;
14294;SDS011;7231;59.370;18.016;2022-09-01T01:07:26;1.55;;;0.88;;
14294;SDS011;7231;59.370;18.016;2022-09-01T01:09:55;1.52;;;0.90;;
14294;SDS011;7231;59.370;18.016;2022-09-01T01:12:24;1.55;;;0.98;;
14294;SDS011;7231;59.370;18.016;2022-09-01T01:14:53;2.65;;;1.15;;
14294;SDS011;7231;59.370;18.016;2022-09-01T01:17:22;1.92;;;0.93;;
14294;SDS011;7231;59.370;18.016;2022-09-01T01:19:52;2.35;;;0.98;;
14294;SDS011;7231;59.370;18.016;2022-09-01T01:22:42;5.00;;;1.00;;
14294;SDS011;7231;59.370;18.016;2022-09-01T01:25:33;1.73;;;0.90;;
14294;SDS011;7231;59.370;18.016;2022-09-01T01:28:04;1.50;;;1.00;;
14294;SDS011;7231;59.370;18.016;2022-09-01T01:30:34;2.35;;;1.00;;
14294;SDS011;7231;59.370;18.016;2022-09-01T01:33:05;4.20;;;1.15;;
14294;SDS011;7231;59.370;18.016;2022-09-01T01:35:33;1.77;;;1.00;;
14294;SDS011;7231;59.370;18.016;2022-09-01T01:38:03;3.97;;;1.05;;
14294;SDS011;7231;59.370;18.016;2022-09-01T01:40:35;1.80;;;0.85;;
14294;SDS011;7231;59.370;18.016;2022-09-01T01:43:03;1.52;;;0.75;;
14294;SDS011;7231;59.370;18.016;2022-09-01T01:45:32;1.52;;;0.82;;
14294;SDS011;7231;59.370;18.016;2022-09-01T01:48:01;1.90;;;1.10;;
14294;SDS011;7231;59.370;18.016;2022-09-01T01:50:33;2.05;;;1.00;;
14294;SDS011;7231;59.370;18.016;2022-09-01T01:53:03;2.83;;;1.10;;
14294;SDS011;7231;59.370;18.016;2022-09-01T01:55:39;2.40;;;1.02;;
14294;SDS011;7231;59.370;18.016;2022-09-01T01:58:09;2.42;;;1.10;;
14294;SDS011;7231;59.370;18.016;2022-09-01T02:00:38;2.92;;;1.10;;
14294;SDS011;7231;59.370;18.016;2022-09-01T02:03:10;1.17;;;0.88;;
14294;SDS011;7231;59.370;18.016;2022-09-01T02:05:42;3.85;;;1.20;;
14294;SDS011;7231;59.370;18.016;2022-09-01T02:08:12;1.92;;;0.70;;
14294;SDS011;7231;59.370;18.016;2022-09-01T02:10:46;1.85;;;1.08;;
14294;SDS011;7231;59.370;18.016;2022-09-01T02:13:16;1.70;;;1.10;;
14294;SDS011;7231;59.370;18.016;2022-09-01T02:15:47;3.42;;;1.20;;
14294;SDS011;7231;59.370;18.016;2022-09-01T02:18:20;1.77;;;0.90;;
14294;SDS011;7231;59.370;18.016;2022-09-01T02:20:50;0.90;;;0.80;;
14294;SDS011;7231;59.370;18.016;2022-09-01T02:23:19;1.58;;;0.70;;
14294;SDS011;7231;59.370;18.016;2022-09-01T02:25:53;3.05;;;0.77;;
14294;SDS011;7231;59.370;18.016;2022-09-01T02:28:42;1.00;;;0.90;;
14294;SDS011;7231;59.370;18.016;2022-09-01T02:31:17;1.13;;;0.80;;
14294;SDS011;7231;59.370;18.016;2022-09-01T02:33:46;1.02;;;0.80;;
14294;SDS011;7231;59.370;18.016;2022-09-01T02:36:15;1.42;;;0.70;;
14294;SDS011;7231;59.370;18.016;2022-09-01T02:38:45;2.65;;;0.90;;
14294;SDS011;7231;59.370;18.016;2022-09-01T02:41:22;1.60;;;0.80;;
14294;SDS011;7231;59.370;18.016;2022-09-01T02:43:54;1.60;;;0.60;;
14294;SDS011;7231;59.370;18.016;2022-09-01T02:46:28;1.50;;;0.65;;
14294;SDS011;7231;59.370;18.016;2022-09-01T02:48:56;1.70;;;0.73;;
14294;SDS011;7231;59.370;18.016;2022-09-01T02:51:26;1.15;;;0.77;;
14294;SDS011;7231;59.370;18.016;2022-09-01T02:53:54;0.85;;;0.63;;
14294;SDS011;7231;59.370;18.016;2022-09-01T02:56:24;2.80;;;0.70;;
14294;SDS011;7231;59.370;18.016;2022-09-01T02:58:53;0.80;;;0.60;;
14294;SDS011;7231;59.370;18.016;2022-09-01T03:01:23;1.75;;;0.70;;
14294;SDS011;7231;59.370;18.016;2022-09-01T03:03:54;1.00;;;0.70;;
14294;SDS011;7231;59.370;18.016;2022-09-01T03:06:24;1.77;;;0.60;;
14294;SDS011;7231;59.370;18.016;2022-09-01T03:08:54;1.70;;;0.80;;
14294;SDS011;7231;59.370;18.016;2022-09-01T03:11:27;0.88;;;0.68;;
14294;SDS011;7231;59.370;18.016;2022-09-01T03:13:57;1.23;;;0.65;;
14294;SDS011;7231;59.370;18.016;2022-09-01T03:16:25;0.60;;;0.60;;
14294;SDS011;7231;59.370;18.016;2022-09-01T03:18:56;1.80;;;0.63;;
14294;SDS011;7231;59.370;18.016;2022-09-01T03:21:24;0.70;;;0.63;;
14294;SDS011;7231;59.370;18.016;2022-09-01T03:23:53;0.98;;;0.60;;
14294;SDS011;7231;59.370;18.016;2022-09-01T03:26:21;0.93;;;0.70;;
14294;SDS011;7231;59.370;18.016;2022-09-01T03:28:50;1.02;;;0.60;;
14294;SDS011;7231;59.370;18.016;2022-09-01T03:31:19;1.02;;;0.50;;
14294;SDS011;7231;59.370;18.016;2022-09-01T03:33:47;0.88;;;0.70;;
14294;SDS011;7231;59.370;18.016;2022-09-01T03:36:16;2.35;;;0.60;;
14294;SDS011;7231;59.370;18.016;2022-09-01T03:38:45;0.88;;;0.50;;
14294;SDS011;7231;59.370;18.016;2022-09-01T03:41:17;0.80;;;0.63;;
14294;SDS011;7231;59.370;18.016;2022-09-01T03:43:48;0.93;;;0.50;;
14294;SDS011;7231;59.370;18.016;2022-09-01T03:46:17;1.92;;;0.60;;
14294;SDS011;7231;59.370;18.016;2022-09-01T03:48:48;1.00;;;0.57;;
14294;SDS011;7231;59.370;18.016;2022-09-01T03:51:17;2.03;;;0.80;;
14294;SDS011;7231;59.370;18.016;2022-09-01T03:53:51;0.68;;;0.65;;
14294;SDS011;7231;59.370;18.016;2022-09-01T03:56:22;1.20;;;0.57;;
14294;SDS011;7231;59.370;18.016;2022-09-01T03:58:53;1.00;;;0.80;;
14294;SDS011;7231;59.370;18.016;2022-09-01T04:01:24;1.20;;;0.70;;
14294;SDS011;7231;59.370;18.016;2022-09-01T04:03:54;0.95;;;0.70;;
14294;SDS011;7231;59.370;18.016;2022-09-01T04:06:22;1.02;;;0.70;;
14294;SDS011;7231;59.370;18.016;2022-09-01T04:08:51;1.23;;;0.70;;
14294;SDS011;7231;59.370;18.016;2022-09-01T04:11:23;1.52;;;0.73;;
14294;SDS011;7231;59.370;18.016;2022-09-01T04:13:51;1.15;;;0.70;;
14294;SDS011;7231;59.370;18.016;2022-09-01T04:16:20;1.30;;;0.60;;
14294;SDS011;7231;59.370;18.016;2022-09-01T04:19:16;1.58;;;0.90;;
14294;SDS011;7231;59.370;18.016;2022-09-01T04:21:52;1.38;;;0.68;;
14294;SDS011;7231;59.370;18.016;2022-09-01T04:24:22;1.02;;;0.70;;
14294;SDS011;7231;59.370;18.016;2022-09-01T04:26:54;0.70;;;0.70;;
14294;SDS011;7231;59.370;18.016;2022-09-01T04:29:24;0.75;;;0.68;;
14294;SDS011;7231;59.370;18.016;2022-09-01T04:31:53;1.95;;;0.60;;
14294;SDS011;7231;59.370;18.016;2022-09-01T04:34:24;1.30;;;0.80;;
14294;SDS011;7231;59.370;18.016;2022-09-01T04:36:53;1.10;;;0.70;;
14294;SDS011;7231;59.370;18.016;2022-09-01T04:39:22;0.70;;;0.60;;
14294;SDS011;7231;59.370;18.016;2022-09-01T04:41:50;2.80;;;0.90;;
14294;SDS011;7231;59.370;18.016;2022-09-01T04:44:19;1.10;;;0.60;;
14294;SDS011;7231;59.370;18.016;2022-09-01T04:46:47;2.38;;;0.70;;
14294;SDS011;7231;59.370;18.016;2022-09-01T04:49:16;1.50;;;0.52;;
14294;SDS011;7231;59.370;18.016;2022-09-01T04:51:49;2.15;;;0.70;;
14294;SDS011;7231;59.370;18.016;2022-09-01T04:54:20;1.77;;;0.80;;
14294;SDS011;7231;59.370;18.016;2022-09-01T04:56:49;2.63;;;0.80;;
14294;SDS011;7231;59.370;18.016;2022-09-01T04:59:19;1.35;;;0.73;;
14294;SDS011;7231;59.370;18.016;2022-09-01T05:01:48;0.70;;;0.52;;
14294;SDS011;7231;59.370;18.016;2022-09-01T05:04:21;1.98;;;0.63;;
14294;SDS011;7231;59.370;18.016;2022-09-01T05:06:55;0.70;;;0.60;;
14294;SDS011;7231;59.370;18.016;2022-09-01T05:09:26;1.00;;;0.70;;
14294;SDS011;7231;59.370;18.016;2022-09-01T05:11:56;3.85;;;0.82;;
14294;SDS011;7231;59.370;18.016;2022-09-01T05:14:41;3.13;;;1.80;;
14294;SDS011;7231;59.370;18.016;2022-09-01T05:17:14;2.45;;;1.08;;
14294;SDS011;7231;59.370;18.016;2022-09-01T05:19:45;6.60;;;2.17;;
14294;SDS011;7231;59.370;18.016;2022-09-01T05:22:17;1.42;;;0.80;;
14294;SDS011;7231;59.370;18.016;2022-09-01T05:24:47;0.68;;;0.60;;
14294;SDS011;7231;59.370;18.016;2022-09-01T05:27:20;0.80;;;0.70;;
14294;SDS011;7231;59.370;18.016;2022-09-01T05:29:49;2.33;;;0.65;;
14294;SDS011;7231;59.370;18.016;2022-09-01T05:32:17;1.30;;;0.68;;
14294;SDS011;7231;59.370;18.016;2022-09-01T05:34:47;2.35;;;0.70;;
14294;SDS011;7231;59.370;18.016;2022-09-01T05:37:15;1.65;;;0.68;;
14294;SDS011;7231;59.370;18.016;2022-09-01T05:39:46;2.53;;;0.80;;
14294;SDS011;7231;59.370;18.016;2022-09-01T05:42:14;2.05;;;0.77;;
14294;SDS011;7231;59.370;18.016;2022-09-01T05:44:42;2.47;;;0.60;;
14294;SDS011;7231;59.370;18.016;2022-09-01T05:47:11;3.03;;;0.90;;
14294;SDS011;7231;59.370;18.016;2022-09-01T05:49:46;0.98;;;0.70;;
14294;SDS011;7231;59.370;18.016;2022-09-01T05:52:15;2.22;;;0.60;;
14294;SDS011;7231;59.370;18.016;2022-09-01T05:54:45;0.90;;;0.70;;
14294;SDS011;7231;59.370;18.016;2022-09-01T05:57:15;2.05;;;0.70;;
14294;SDS011;7231;59.370;18.016;2022-09-01T06:00:00;2.63;;;0.90;;
14294;SDS011;7231;59.370;18.016;2022-09-01T06:02:28;1.40;;;0.68;;
14294;SDS011;7231;59.370;18.016;2022-09-01T06:04:59;2.58;;;0.93;;
14294;SDS011;7231;59.370;18.016;2022-09-01T06:07:27;2.25;;;0.95;;
14294;SDS011;7231;59.370;18.016;2022-09-01T06:09:56;1.45;;;0.70;;
14294;SDS011;7231;59.370;18.016;2022-09-01T06:12:25;0.70;;;0.52;;
14294;SDS011;7231;59.370;18.016;2022-09-01T06:14:54;1.25;;;0.60;;
14294;SDS011;7231;59.370;18.016;2022-09-01T06:17:24;1.52;;;0.77;;
14294;SDS011;7231;59.370;18.016;2022-09-01T06:19:54;0.60;;;0.57;;
14294;SDS011;7231;59.370;18.016;2022-09-01T06:22:23;2.67;;;1.02;;
14294;SDS011;7231;59.370;18.016;2022-09-01T06:24:53;2.95;;;0.80;;
14294;SDS011;7231;59.370;18.016;2022-09-01T06:27:29;2.35;;;1.00;;
14294;SDS011;7231;59.370;18.016;2022-09-01T06:29:57;2.80;;;0.95;;
14294;SDS011;7231;59.370;18.016;2022-09-01T06:32:25;2.35;;;0.63;;
14294;SDS011;7231;59.370;18.016;2022-09-01T06:34:54;2.65;;;0.70;;
14294;SDS011;7231;59.370;18.016;2022-09-01T06:37:23;2.20;;;0.63;;
14294;SDS011;7231;59.370;18.016;2022-09-01T06:39:52;2.10;;;0.85;;
14294;SDS011;7231;59.370;18.016;2022-09-01T06:42:20;2.47;;;1.00;;
14294;SDS011;7231;59.370;18.016;2022-09-01T06:44:50;1.38;;;0.80;;
14294;SDS011;7231;59.370;18.016;2022-09-01T06:47:18;1.63;;;0.40;;
14294;SDS011;7231;59.370;18.016;2022-09-01T06:49:46;2.80;;;0.60;;
14294;SDS011;7231;59.370;18.016;2022-09-01T06:52:19;2.25;;;0.80;;
14294;SDS011;7231;59.370;18.016;2022-09-01T06:54:49;0.93;;;0.60;;
14294;SDS011;7231;59.370;18.016;2022-09-01T06:57:20;1.73;;;0.60;;
14294;SDS011;7231;59.370;18.016;2022-09-01T07:00:10;1.55;;;0.65;;
14294;SDS011;7231;59.370;18.016;2022-09-01T07:03:03;1.65;;;0.75;;
14294;SDS011;7231;59.370;18.016;2022-09-01T07:05:36;2.05;;;0.60;;
14294;SDS011;7231;59.370;18.016;2022-09-01T07:08:25;1.45;;;0.52;;
14294;SDS011;7231;59.370;18.016;2022-09-01T07:10:54;2.03;;;0.80;;
14294;SDS011;7231;59.370;18.016;2022-09-01T07:13:42;1.85;;;0.80;;
14294;SDS011;7231;59.370;18.016;2022-09-01T07:16:33;1.25;;;0.60;;
14294;SDS011;7231;59.370;18.016;2022-09-01T07:19:18;2.38;;;0.80;;
14294;SDS011;7231;59.370;18.016;2022-09-01T07:21:46;1.20;;;1.02;;
14294;SDS011;7231;59.370;18.016;2022-09-01T07:24:34;1.85;;;0.57;;
14294;SDS011;7231;59.370;18.016;2022-09-01T07:27:03;1.65;;;0.50;;
14294;SDS011;7231;59.370;18.016;2022-09-01T07:29:33;0.30;;;0.30;;
14294;SDS011;7231;59.370;18.016;2022-09-01T07:32:03;0.75;;;0.35;;
14294;SDS011;7231;59.370;18.016;2022-09-01T07:34:53;1.75;;;0.77;;
14294;SDS011;7231;59.370;18.016;2022-09-01T07:37:21;0.57;;;0.43;;
14294;SDS011;7231;59.370;18.016;2022-09-01T07:40:13;1.67;;;0.50;;
14294;SDS011;7231;59.370;18.016;2022-09-01T07:43:04;1.20;;;0.50;;
14294;SDS011;7231;59.370;18.016;2022-09-01T07:45:35;2.35;;;0.60;;
14294;SDS011;7231;59.370;18.016;2022-09-01T07:48:14;1.95;;;0.43;;
14294;SDS011;7231;59.370;18.016;2022-09-01T07:51:04;0.98;;;0.57;;
14294;SDS011;7231;59.370;18.016;2022-09-01T07:53:52;2.95;;;0.70;;
14294;SDS011;7231;59.370;18.016;2022-09-01T07:56:21;1.38;;;0.40;;
14294;SDS011;7231;59.370;18.016;2022-09-01T07:58:50;3.20;;;0.70;;
14294;SDS011;7231;59.370;18.016;2022-09-01T08:01:19;1.55;;;0.50;;
14294;SDS011;7231;59.370;18.016;2022-09-01T08:03:51;0.50;;;0.40;;
14294;SDS011;7231;59.370;18.016;2022-09-01T08:06:21;0.95;;;0.43;;
14294;SDS011;7231;59.370;18.016;2022-09-01T08:08:54;1.63;;;0.77;;
14294;SDS011;7231;59.370;18.016;2022-09-01T08:11:24;2.25;;;0.60;;
14294;SDS011;7231;59.370;18.016;2022-09-01T08:14:15;2.15;;;0.90;;
14294;SDS011;7231;59.370;18.016;2022-09-01T08:16:43;2.47;;;0.60;;
14294;SDS011;7231;59.370;18.016;2022-09-01T08:19:20;3.45;;;0.50;;
14294;SDS011;7231;59.370;18.016;2022-09-01T08:21:48;0.70;;;0.40;;
14294;SDS011;7231;59.370;18.016;2022-09-01T08:24:16;1.15;;;0.80;;
14294;SDS011;7231;59.370;18.016;2022-09-01T08:26:44;1.05;;;0.60;;
14294;SDS011;7231;59.370;18.016;2022-09-01T08:29:12;1.80;;;0.80;;
14294;SDS011;7231;59.370;18.016;2022-09-01T08:31:40;4.00;;;0.90;;
14294;SDS011;7231;59.370;18.016;2022-09-01T08:34:08;5.80;;;1.55;;
14294;SDS011;7231;59.370;18.016;2022-09-01T08:36:39;6.03;;;1.65;;
14294;SDS011;7231;59.370;18.016;2022-09-01T08:39:07;2.13;;;0.90;;
14294;SDS011;7231;59.370;18.016;2022-09-01T08:41:38;2.47;;;0.80;;
14294;SDS011;7231;59.370;18.016;2022-09-01T08:44:16;3.35;;;0.88;;
14294;SDS011;7231;59.370;18.016;2022-09-01T08:46:48;4.97;;;1.00;;
14294;SDS011;7231;59.370;18.016;2022-09-01T08:49:24;2.10;;;0.90;;
14294;SDS011;7231;59.370;18.016;2022-09-01T08:51:57;4.38;;;1.33;;
14294;SDS011;7231;59.370;18.016;2022-09-01T08:54:31;3.10;;;1.00;;
14294;SDS011;7231;59.370;18.016;2022-09-01T08:57:13;1.83;;;0.80;;
14294;SDS011;7231;59.370;18.016;2022-09-01T08:59:43;5.05;;;1.30;;
14294;SDS011;7231;59.370;18.016;2022-09-01T09:02:16;0.68;;;0.60;;
14294;SDS011;7231;59.370;18.016;2022-09-01T09:04:57;1.88;;;0.50;;
14294;SDS011;7231;59.370;18.016;2022-09-01T09:07:46;1.20;;;0.43;;
14294;SDS011;7231;59.370;18.016;2022-09-01T09:10:37;0.38;;;0.30;;
14294;SDS011;7231;59.370;18.016;2022-09-01T09:13:14;1.10;;;0.55;;
14294;SDS011;7231;59.370;18.016;2022-09-01T09:15:49;1.08;;;0.40;;
14294;SDS011;7231;59.370;18.016;2022-09-01T09:18:35;0.80;;;0.70;;
14294;SDS011;7231;59.370;18.016;2022-09-01T09:21:21;0.65;;;0.40;;
14294;SDS011;7231;59.370;18.016;2022-09-01T09:23:57;2.55;;;0.40;;
14294;SDS011;7231;59.370;18.016;2022-09-01T09:26:30;1.52;;;0.40;;
14294;SDS011;7231;59.370;18.016;2022-09-01T09:29:14;0.95;;;0.40;;
14294;SDS011;7231;59.370;18.016;2022-09-01T09:31:42;1.95;;;0.40;;
14294;SDS011;7231;59.370;18.016;2022-09-01T09:34:16;0.65;;;0.40;;
14294;SDS011;7231;59.370;18.016;2022-09-01T09:36:55;1.67;;;0.30;;
14294;SDS011;7231;59.370;18.016;2022-09-01T09:39:25;0.40;;;0.20;;
14294;SDS011;7231;59.370;18.016;2022-09-01T09:42:03;0.73;;;0.40;;
14294;SDS011;7231;59.370;18.016;2022-09-01T09:44:39;1.75;;;0.40;;
14294;SDS011;7231;59.370;18.016;2022-09-01T09:47:10;1.15;;;0.40;;
14294;SDS011;7231;59.370;18.016;2022-09-01T09:50:11;0.77;;;0.30;;
14294;SDS011;7231;59.370;18.016;2022-09-01T09:52:42;0.50;;;0.17;;
14294;SDS011;7231;59.370;18.016;2022-09-01T09:55:24;1.40;;;0.65;;
14294;SDS011;7231;59.370;18.016;2022-09-01T09:57:55;1.08;;;0.30;;
14294;SDS011;7231;59.370;18.016;2022-09-01T10:00:26;0.85;;;0.30;;
14294;SDS011;7231;59.370;18.016;2022-09-01T10:02:57;0.40;;;0.40;;
14294;SDS011;7231;59.370;18.016;2022-09-01T10:05:40;0.63;;;0.60;;
14294;SDS011;7231;59.370;18.016;2022-09-01T10:08:10;0.93;;;0.30;;
14294;SDS011;7231;59.370;18.016;2022-09-01T10:10:48;0.98;;;0.40;;
14294;SDS011;7231;59.370;18.016;2022-09-01T10:13:24;0.85;;;0.60;;
14294;SDS011;7231;59.370;18.016;2022-09-01T10:15:59;4.70;;;1.20;;
14294;SDS011;7231;59.370;18.016;2022-09-01T10:18:31;4.07;;;1.50;;
14294;SDS011;7231;59.370;18.016;2022-09-01T10:21:06;1.00;;;0.47;;
14294;SDS011;7231;59.370;18.016;2022-09-01T10:23:36;2.53;;;0.40;;
14294;SDS011;7231;59.370;18.016;2022-09-01T10:26:09;1.25;;;0.30;;
14294;SDS011;7231;59.370;18.016;2022-09-01T10:28:45;1.67;;;0.60;;
14294;SDS011;7231;59.370;18.016;2022-09-01T10:31:19;1.40;;;0.65;;
14294;SDS011;7231;59.370;18.016;2022-09-01T10:33:49;1.58;;;0.60;;
14294;SDS011;7231;59.370;18.016;2022-09-01T10:36:17;1.17;;;0.60;;
14294;SDS011;7231;59.370;18.016;2022-09-01T10:38:51;1.25;;;0.43;;
14294;SDS011;7231;59.370;18.016;2022-09-01T10:41:53;2.30;;;0.82;;
14294;SDS011;7231;59.370;18.016;2022-09-01T10:44:26;1.65;;;0.60;;
14294;SDS011;7231;59.370;18.016;2022-09-01T10:47:02;1.40;;;0.30;;
14294;SDS011;7231;59.370;18.016;2022-09-01T10:52:52;2.60;;;1.23;;
14294;SDS011;7231;59.370;18.016;2022-09-01T10:55:23;0.68;;;0.40;;
14294;SDS011;7231;59.370;18.016;2022-09-01T10:57:57;0.90;;;0.38;;
14294;SDS011;7231;59.370;18.016;2022-09-01T11:00:55;0.30;;;0.20;;
14294;SDS011;7231;59.370;18.016;2022-09-01T11:03:49;0.17;;;0.10;;
14294;SDS011;7231;59.370;18.016;2022-09-01T11:09:47;0.30;;;0.25;;
14294;SDS011;7231;59.370;18.016;2022-09-01T11:13:10;0.55;;;0.40;;
14294;SDS011;7231;59.370;18.016;2022-09-01T11:16:00;0.13;;;0.10;;
14294;SDS011;7231;59.370;18.016;2022-09-01T11:19:31;1.55;;;0.30;;
14294;SDS011;7231;59.370;18.016;2022-09-01T11:22:08;0.65;;;0.30;;
14294;SDS011;7231;59.370;18.016;2022-09-01T11:24:46;0.40;;;0.20;;
14294;SDS011;7231;59.370;18.016;2022-09-01T11:30:51;0.30;;;0.20;;
14294;SDS011;7231;59.370;18.016;2022-09-01T11:33:26;0.20;;;0.10;;
14294;SDS011;7231;59.370;18.016;2022-09-01T11:36:01;0.25;;;0.15;;
14294;SDS011;7231;59.370;18.016;2022-09-01T11:38:33;2.35;;;0.20;;
14294;SDS011;7231;59.370;18.016;2022-09-01T11:41:18;0.25;;;0.25;;
14294;SDS011;7231;59.370;18.016;2022-09-01T11:43:53;0.45;;;0.22;;
14294;SDS011;7231;59.370;18.016;2022-09-01T11:46:26;1.23;;;0.50;;
14294;SDS011;7231;59.370;18.016;2022-09-01T11:48:56;0.60;;;0.47;;
14294;SDS011;7231;59.370;18.016;2022-09-01T11:51:26;1.65;;;0.20;;
14294;SDS011;7231;59.370;18.016;2022-09-01T11:53:57;1.65;;;0.15;;
14294;SDS011;7231;59.370;18.016;2022-09-01T11:56:27;0.22;;;0.10;;
14294;SDS011;7231;59.370;18.016;2022-09-01T11:58:55;0.40;;;0.20;;
14294;SDS011;7231;59.370;18.016;2022-09-01T12:01:31;0.10;;;0.10;;
14294;SDS011;7231;59.370;18.016;2022-09-01T12:04:17;0.68;;;0.10;;
14294;SDS011;7231;59.370;18.016;2022-09-01T12:06:52;0.47;;;0.30;;
14294;SDS011;7231;59.370;18.016;2022-09-01T12:09:30;0.30;;;0.30;;
14294;SDS011;7231;59.370;18.016;2022-09-01T12:12:03;0.93;;;0.70;;
14294;SDS011;7231;59.370;18.016;2022-09-01T12:14:32;0.77;;;0.75;;
14294;SDS011;7231;59.370;18.016;2022-09-01T12:17:22;1.85;;;0.60;;
14294;SDS011;7231;59.370;18.016;2022-09-01T12:19:51;1.00;;;0.82;;
14294;SDS011;7231;59.370;18.016;2022-09-01T12:22:20;1.30;;;1.20;;
14294;SDS011;7231;59.370;18.016;2022-09-01T12:24:49;0.82;;;0.65;;
14294;SDS011;7231;59.370;18.016;2022-09-01T12:27:20;0.43;;;0.22;;
14294;SDS011;7231;59.370;18.016;2022-09-01T12:29:49;0.90;;;0.20;;
14294;SDS011;7231;59.370;18.016;2022-09-01T12:32:18;0.43;;;0.20;;
14294;SDS011;7231;59.370;18.016;2022-09-01T12:34:58;0.50;;;0.20;;
14294;SDS011;7231;59.370;18.016;2022-09-01T12:37:36;0.20;;;0.10;;
14294;SDS011;7231;59.370;18.016;2022-09-01T12:40:04;1.42;;;0.20;;
14294;SDS011;7231;59.370;18.016;2022-09-01T12:42:48;0.10;;;0.10;;
14294;SDS011;7231;59.370;18.016;2022-09-01T12:48:04;0.30;;;0.20;;
14294;SDS011;7231;59.370;18.016;2022-09-01T12:53:25;0.85;;;0.30;;
14294;SDS011;7231;59.370;18.016;2022-09-01T12:56:00;0.90;;;0.30;;
14294;SDS011;7231;59.370;18.016;2022-09-01T12:58:31;0.68;;;0.30;;
14294;SDS011;7231;59.370;18.016;2022-09-01T13:01:01;0.20;;;0.17;;
14294;SDS011;7231;59.370;18.016;2022-09-01T13:03:34;0.80;;;0.30;;
14294;SDS011;7231;59.370;18.016;2022-09-01T13:06:04;0.77;;;0.40;;
14294;SDS011;7231;59.370;18.016;2022-09-01T13:08:34;0.47;;;0.25;;
14294;SDS011;7231;59.370;18.016;2022-09-01T13:11:03;0.90;;;0.40;;
14294;SDS011;7231;59.370;18.016;2022-09-01T13:13:36;0.70;;;0.30;;
14294;SDS011;7231;59.370;18.016;2022-09-01T13:16:05;0.43;;;0.20;;
14294;SDS011;7231;59.370;18.016;2022-09-01T13:18:39;0.80;;;0.17;;
14294;SDS011;7231;59.370;18.016;2022-09-01T13:21:30;1.48;;;0.22;;
14294;SDS011;7231;59.370;18.016;2022-09-01T13:24:00;0.98;;;0.20;;
14294;SDS011;7231;59.370;18.016;2022-09-01T13:26:29;0.10;;;0.10;;
14294;SDS011;7231;59.370;18.016;2022-09-01T13:28:57;0.20;;;0.20;;
14294;SDS011;7231;59.370;18.016;2022-09-01T13:31:26;0.50;;;0.25;;
14294;SDS011;7231;59.370;18.016;2022-09-01T13:33:57;0.28;;;0.20;;
14294;SDS011;7231;59.370;18.016;2022-09-01T13:36:47;1.55;;;0.20;;
14294;SDS011;7231;59.370;18.016;2022-09-01T13:39:18;0.32;;;0.20;;
14294;SDS011;7231;59.370;18.016;2022-09-01T13:41:48;0.50;;;0.40;;
14294;SDS011;7231;59.370;18.016;2022-09-01T13:44:16;1.38;;;0.50;;
14294;SDS011;7231;59.370;18.016;2022-09-01T13:46:45;1.17;;;0.40;;
14294;SDS011;7231;59.370;18.016;2022-09-01T13:49:33;1.65;;;0.38;;
14294;SDS011;7231;59.370;18.016;2022-09-01T13:52:23;2.22;;;1.10;;
14294;SDS011;7231;59.370;18.016;2022-09-01T13:54:51;0.52;;;0.43;;
14294;SDS011;7231;59.370;18.016;2022-09-01T13:57:19;0.40;;;0.30;;
14294;SDS011;7231;59.370;18.016;2022-09-01T13:59:47;0.22;;;0.22;;
14294;SDS011;7231;59.370;18.016;2022-09-01T14:02:15;0.95;;;0.47;;
14294;SDS011;7231;59.370;18.016;2022-09-01T14:04:44;0.98;;;0.40;;
14294;SDS011;7231;59.370;18.016;2022-09-01T14:07:12;0.45;;;0.38;;
14294;SDS011;7231;59.370;18.016;2022-09-01T14:09:42;1.10;;;0.40;;
14294;SDS011;7231;59.370;18.016;2022-09-01T14:12:10;0.45;;;0.40;;
14294;SDS011;7231;59.370;18.016;2022-09-01T14:14:39;0.63;;;0.45;;
14294;SDS011;7231;59.370;18.016;2022-09-01T14:17:27;0.70;;;0.30;;
14294;SDS011;7231;59.370;18.016;2022-09-01T14:19:55;1.05;;;0.40;;
14294;SDS011;7231;59.370;18.016;2022-09-01T14:22:23;1.52;;;0.28;;
14294;SDS011;7231;59.370;18.016;2022-09-01T14:24:52;1.30;;;0.50;;
14294;SDS011;7231;59.370;18.016;2022-09-01T14:27:21;0.43;;;0.40;;
14294;SDS011;7231;59.370;18.016;2022-09-01T14:29:49;2.35;;;0.35;;
14294;SDS011;7231;59.370;18.016;2022-09-01T14:32:22;1.35;;;0.98;;
14294;SDS011;7231;59.370;18.016;2022-09-01T14:34:52;1.05;;;0.50;;
14294;SDS011;7231;59.370;18.016;2022-09-01T14:37:21;0.88;;;0.50;;
14294;SDS011;7231;59.370;18.016;2022-09-01T14:39:50;0.70;;;0.30;;
14294;SDS011;7231;59.370;18.016;2022-09-01T14:42:21;1.13;;;0.40;;
14294;SDS011;7231;59.370;18.016;2022-09-01T14:44:51;4.22;;;0.45;;
14294;SDS011;7231;59.370;18.016;2022-09-01T14:47:19;0.60;;;0.38;;
14294;SDS011;7231;59.370;18.016;2022-09-01T14:49:50;0.85;;;0.32;;
14294;SDS011;7231;59.370;18.016;2022-09-01T14:52:19;1.48;;;0.35;;
14294;SDS011;7231;59.370;18.016;2022-09-01T14:54:47;0.95;;;0.40;;
14294;SDS011;7231;59.370;18.016;2022-09-01T14:57:16;0.65;;;0.50;;
14294;SDS011;7231;59.370;18.016;2022-09-01T15:00:05;2.80;;;1.10;;
14294;SDS011;7231;59.370;18.016;2022-09-01T15:02:37;0.55;;;0.30;;
14294;SDS011;7231;59.370;18.016;2022-09-01T15:05:06;1.25;;;0.40;;
14294;SDS011;7231;59.370;18.016;2022-09-01T15:07:35;1.27;;;0.30;;
14294;SDS011;7231;59.370;18.016;2022-09-01T15:10:04;0.73;;;0.30;;
14294;SDS011;7231;59.370;18.016;2022-09-01T15:12:34;1.67;;;0.98;;
14294;SDS011;7231;59.370;18.016;2022-09-01T15:15:07;0.45;;;0.30;;
14294;SDS011;7231;59.370;18.016;2022-09-01T15:17:36;0.52;;;0.25;;
14294;SDS011;7231;59.370;18.016;2022-09-01T15:20:06;0.75;;;0.50;;
14294;SDS011;7231;59.370;18.016;2022-09-01T15:22:53;0.65;;;0.30;;
14294;SDS011;7231;59.370;18.016;2022-09-01T15:25:21;0.30;;;0.30;;
14294;SDS011;7231;59.370;18.016;2022-09-01T15:27:50;0.45;;;0.30;;
14294;SDS011;7231;59.370;18.016;2022-09-01T15:30:20;0.20;;;0.20;;
14294;SDS011;7231;59.370;18.016;2022-09-01T15:32:48;0.38;;;0.30;;
14294;SDS011;7231;59.370;18.016;2022-09-01T15:35:20;0.63;;;0.40;;
14294;SDS011;7231;59.370;18.016;2022-09-01T15:37:49;1.15;;;0.73;;